sensor_id;sensor_type;location;lat;lon;timestamp;temperature;humidity
15983;DHT22;14442;50.196;8.096;2022-11-27T00:00:29;22.40;44.10
15983;DHT22;14442;50.196;8.096;2022-11-27T00:02:56;22.40;44.00
15983;DHT22;14442;50.196;8.096;2022-11-27T00:05:22;22.40;44.10
15983;DHT22;14442;50.196;8.096;2022-11-27T00:07:49;22.40;44.10
15983;DHT22;14442;50.196;8.096;2022-11-27T00:10:16;22.50;43.80
15983;DHT22;14442;50.196;8.096;2022-11-27T00:12:43;22.50;43.70
15983;DHT22;14442;50.196;8.096;2022-11-27T00:15:11;22.60;43.60
15983;DHT22;14442;50.196;8.096;2022-11-27T00:17:37;22.60;43.60
15983;DHT22;14442;50.196;8.096;2022-11-27T00:20:05;22.70;44.10
15983;DHT22;14442;50.196;8.096;2022-11-27T00:22:32;22.70;44.60
15983;DHT22;14442;50.196;8.096;2022-11-27T00:24:59;22.70;44.90
15983;DHT22;14442;50.196;8.096;2022-11-27T00:27:26;22.80;45.40
15983;DHT22;14442;50.196;8.096;2022-11-27T00:29:53;22.80;45.30
15983;DHT22;14442;50.196;8.096;2022-11-27T00:32:21;22.80;45.30
15983;DHT22;14442;50.196;8.096;2022-11-27T00:34:47;22.70;45.40
15983;DHT22;14442;50.196;8.096;2022-11-27T00:37:14;22.80;45.60
15983;DHT22;14442;50.196;8.096;2022-11-27T00:39:41;22.80;45.80
15983;DHT22;14442;50.196;8.096;2022-11-27T00:42:08;22.80;45.90
15983;DHT22;14442;50.196;8.096;2022-11-27T00:44:34;22.80;45.90
15983;DHT22;14442;50.196;8.096;2022-11-27T00:47:01;22.80;45.80
15983;DHT22;14442;50.196;8.096;2022-11-27T00:49:29;22.80;45.70
15983;DHT22;14442;50.196;8.096;2022-11-27T00:51:56;22.90;45.90
15983;DHT22;14442;50.196;8.096;2022-11-27T00:54:23;22.90;45.70
15983;DHT22;14442;50.196;8.096;2022-11-27T00:56:50;22.80;45.60
15983;DHT22;14442;50.196;8.096;2022-11-27T00:59:17;22.80;45.50
15983;DHT22;14442;50.196;8.096;2022-11-27T01:01:43;22.80;45.40
15983;DHT22;14442;50.196;8.096;2022-11-27T01:04:13;22.80;45.40
15983;DHT22;14442;50.196;8.096;2022-11-27T01:06:43;22.70;45.20
15983;DHT22;14442;50.196;8.096;2022-11-27T01:09:10;22.80;45.30
15983;DHT22;14442;50.196;8.096;2022-11-27T01:11:37;22.80;45.30
15983;DHT22;14442;50.196;8.096;2022-11-27T01:14:06;22.70;45.30
15983;DHT22;14442;50.196;8.096;2022-11-27T01:16:33;22.70;45.30
15983;DHT22;14442;50.196;8.096;2022-11-27T01:19:01;22.70;45.30
15983;DHT22;14442;50.196;8.096;2022-11-27T01:21:30;22.70;45.30
15983;DHT22;14442;50.196;8.096;2022-11-27T01:23:59;22.70;45.30
15983;DHT22;14442;50.196;8.096;2022-11-27T01:26:26;22.70;45.40
15983;DHT22;14442;50.196;8.096;2022-11-27T01:28:55;22.70;45.30
15983;DHT22;14442;50.196;8.096;2022-11-27T01:31:23;22.70;45.30
15983;DHT22;14442;50.196;8.096;2022-11-27T01:33:52;22.70;45.30
15983;DHT22;14442;50.196;8.096;2022-11-27T01:36:20;22.70;45.30
15983;DHT22;14442;50.196;8.096;2022-11-27T01:38:47;22.80;45.30
15983;DHT22;14442;50.196;8.096;2022-11-27T01:41:18;22.80;45.20
15983;DHT22;14442;50.196;8.096;2022-11-27T01:43:47;22.80;45.20
15983;DHT22;14442;50.196;8.096;2022-11-27T01:46:34;22.90;45.10
15983;DHT22;14442;50.196;8.096;2022-11-27T01:49:19;22.90;45.00
15983;DHT22;14442;50.196;8.096;2022-11-27T01:51:52;23.00;45.00
15983;DHT22;14442;50.196;8.096;2022-11-27T01:54:21;23.00;45.00
15983;DHT22;14442;50.196;8.096;2022-11-27T01:57:12;23.00;45.00
15983;DHT22;14442;50.196;8.096;2022-11-27T01:59:40;23.00;44.90
15983;DHT22;14442;50.196;8.096;2022-11-27T02:02:07;23.10;45.00
15983;DHT22;14442;50.196;8.096;2022-11-27T02:04:34;23.10;44.90
15983;DHT22;14442;50.196;8.096;2022-11-27T02:07:01;23.10;45.00
15983;DHT22;14442;50.196;8.096;2022-11-27T02:09:28;23.10;44.90
15983;DHT22;14442;50.196;8.096;2022-11-27T02:12:01;23.10;44.80
15983;DHT22;14442;50.196;8.096;2022-11-27T02:14:37;23.20;44.90
15983;DHT22;14442;50.196;8.096;2022-11-27T02:17:08;23.20;44.90
15983;DHT22;14442;50.196;8.096;2022-11-27T02:19:49;23.20;45.00
15983;DHT22;14442;50.196;8.096;2022-11-27T02:22:25;23.20;45.00
15983;DHT22;14442;50.196;8.096;2022-11-27T02:25:00;23.20;45.00
15983;DHT22;14442;50.196;8.096;2022-11-27T02:27:42;23.20;45.00
15983;DHT22;14442;50.196;8.096;2022-11-27T02:30:13;23.20;45.00
15983;DHT22;14442;50.196;8.096;2022-11-27T02:32:44;23.20;44.90
15983;DHT22;14442;50.196;8.096;2022-11-27T02:35:16;23.20;45.00
15983;DHT22;14442;50.196;8.096;2022-11-27T02:37:46;23.20;45.00
15983;DHT22;14442;50.196;8.096;2022-11-27T02:40:19;23.20;45.00
15983;DHT22;14442;50.196;8.096;2022-11-27T02:42:50;23.20;45.00
15983;DHT22;14442;50.196;8.096;2022-11-27T02:45:23;23.20;45.00
15983;DHT22;14442;50.196;8.096;2022-11-27T02:47:51;23.20;45.00
15983;DHT22;14442;50.196;8.096;2022-11-27T02:50:21;23.20;45.00
15983;DHT22;14442;50.196;8.096;2022-11-27T02:52:52;23.20;45.10
15983;DHT22;14442;50.196;8.096;2022-11-27T02:55:22;23.20;45.10
15983;DHT22;14442;50.196;8.096;2022-11-27T02:57:54;23.20;45.10
15983;DHT22;14442;50.196;8.096;2022-11-27T03:00:23;23.20;45.10
15983;DHT22;14442;50.196;8.096;2022-11-27T03:02:54;23.20;45.10
15983;DHT22;14442;50.196;8.096;2022-11-27T03:05:24;23.20;45.10
15983;DHT22;14442;50.196;8.096;2022-11-27T03:07:54;23.20;45.20
15983;DHT22;14442;50.196;8.096;2022-11-27T03:10:29;23.20;45.20
15983;DHT22;14442;50.196;8.096;2022-11-27T03:12:58;23.20;45.20
15983;DHT22;14442;50.196;8.096;2022-11-27T03:15:29;23.20;45.20
15983;DHT22;14442;50.196;8.096;2022-11-27T03:18:04;23.20;45.20
15983;DHT22;14442;50.196;8.096;2022-11-27T03:20:38;23.20;45.20
15983;DHT22;14442;50.196;8.096;2022-11-27T03:23:06;23.30;45.30
15983;DHT22;14442;50.196;8.096;2022-11-27T03:25:33;23.20;45.30
15983;DHT22;14442;50.196;8.096;2022-11-27T03:28:02;23.20;45.30
15983;DHT22;14442;50.196;8.096;2022-11-27T03:30:31;23.20;45.30
15983;DHT22;14442;50.196;8.096;2022-11-27T03:32:58;23.20;45.30
15983;DHT22;14442;50.196;8.096;2022-11-27T03:35:26;23.20;45.30
15983;DHT22;14442;50.196;8.096;2022-11-27T03:37:53;23.20;45.30
15983;DHT22;14442;50.196;8.096;2022-11-27T03:40:24;23.20;45.30
15983;DHT22;14442;50.196;8.096;2022-11-27T03:43:00;23.20;45.30
15983;DHT22;14442;50.196;8.096;2022-11-27T03:45:34;23.20;45.40
15983;DHT22;14442;50.196;8.096;2022-11-27T03:48:12;23.20;45.30
15983;DHT22;14442;50.196;8.096;2022-11-27T03:50:53;23.20;45.40
15983;DHT22;14442;50.196;8.096;2022-11-27T03:53:28;23.20;45.40
15983;DHT22;14442;50.196;8.096;2022-11-27T03:56:00;23.20;45.40
15983;DHT22;14442;50.196;8.096;2022-11-27T03:58:35;23.20;45.40
15983;DHT22;14442;50.196;8.096;2022-11-27T04:01:07;23.10;45.40
15983;DHT22;14442;50.196;8.096;2022-11-27T04:03:35;23.20;45.50
15983;DHT22;14442;50.196;8.096;2022-11-27T04:06:02;23.20;45.50
15983;DHT22;14442;50.196;8.096;2022-11-27T04:08:29;23.20;45.50
15983;DHT22;14442;50.196;8.096;2022-11-27T04:10:56;23.10;45.40
15983;DHT22;14442;50.196;8.096;2022-11-27T04:13:23;23.20;45.50
15983;DHT22;14442;50.196;8.096;2022-11-27T04:15:49;23.10;45.40
15983;DHT22;14442;50.196;8.096;2022-11-27T04:18:17;23.10;45.40
15983;DHT22;14442;50.196;8.096;2022-11-27T04:20:44;23.10;45.40
15983;DHT22;14442;50.196;8.096;2022-11-27T04:23:11;23.20;45.50
15983;DHT22;14442;50.196;8.096;2022-11-27T04:25:37;23.10;45.40
15983;DHT22;14442;50.196;8.096;2022-11-27T04:28:04;23.10;45.50
15983;DHT22;14442;50.196;8.096;2022-11-27T04:30:31;23.10;45.60
15983;DHT22;14442;50.196;8.096;2022-11-27T04:32:57;23.10;45.60
15983;DHT22;14442;50.196;8.096;2022-11-27T04:35:25;23.10;45.60
15983;DHT22;14442;50.196;8.096;2022-11-27T04:37:52;23.00;45.60
15983;DHT22;14442;50.196;8.096;2022-11-27T04:40:19;23.00;45.70
15983;DHT22;14442;50.196;8.096;2022-11-27T04:42:46;23.00;45.80
15983;DHT22;14442;50.196;8.096;2022-11-27T04:45:12;22.90;45.70
15983;DHT22;14442;50.196;8.096;2022-11-27T04:47:39;22.90;45.90
15983;DHT22;14442;50.196;8.096;2022-11-27T04:50:07;22.90;45.80
15983;DHT22;14442;50.196;8.096;2022-11-27T04:52:36;22.90;45.90
15983;DHT22;14442;50.196;8.096;2022-11-27T04:55:03;22.90;45.90
15983;DHT22;14442;50.196;8.096;2022-11-27T04:57:30;22.90;45.90
15983;DHT22;14442;50.196;8.096;2022-11-27T04:59:57;22.90;45.80
15983;DHT22;14442;50.196;8.096;2022-11-27T05:02:23;22.90;45.90
15983;DHT22;14442;50.196;8.096;2022-11-27T05:04:50;22.90;45.80
15983;DHT22;14442;50.196;8.096;2022-11-27T05:07:17;22.90;45.70
15983;DHT22;14442;50.196;8.096;2022-11-27T05:09:45;22.90;45.70
15983;DHT22;14442;50.196;8.096;2022-11-27T05:12:11;22.90;45.70
15983;DHT22;14442;50.196;8.096;2022-11-27T05:14:38;22.90;45.70
15983;DHT22;14442;50.196;8.096;2022-11-27T05:17:05;22.90;45.70
15983;DHT22;14442;50.196;8.096;2022-11-27T05:19:32;23.00;45.80
15983;DHT22;14442;50.196;8.096;2022-11-27T05:21:58;22.90;45.70
15983;DHT22;14442;50.196;8.096;2022-11-27T05:24:26;22.90;45.70
15983;DHT22;14442;50.196;8.096;2022-11-27T05:26:55;22.90;45.70
15983;DHT22;14442;50.196;8.096;2022-11-27T05:29:22;22.90;45.70
15983;DHT22;14442;50.196;8.096;2022-11-27T05:31:50;22.90;45.70
15983;DHT22;14442;50.196;8.096;2022-11-27T05:34:17;23.00;45.80
15983;DHT22;14442;50.196;8.096;2022-11-27T05:36:44;22.90;45.70
15983;DHT22;14442;50.196;8.096;2022-11-27T05:39:11;22.90;45.70
15983;DHT22;14442;50.196;8.096;2022-11-27T05:41:39;22.90;45.70
15983;DHT22;14442;50.196;8.096;2022-11-27T05:44:11;22.90;46.40
15983;DHT22;14442;50.196;8.096;2022-11-27T05:46:38;22.90;45.80
15983;DHT22;14442;50.196;8.096;2022-11-27T05:49:04;22.90;45.80
15983;DHT22;14442;50.196;8.096;2022-11-27T05:51:31;22.90;46.40
15983;DHT22;14442;50.196;8.096;2022-11-27T05:53:58;22.90;45.70
15983;DHT22;14442;50.196;8.096;2022-11-27T05:56:25;22.90;45.70
15983;DHT22;14442;50.196;8.096;2022-11-27T05:58:51;22.90;45.80
15983;DHT22;14442;50.196;8.096;2022-11-27T06:01:20;22.90;45.80
15983;DHT22;14442;50.196;8.096;2022-11-27T06:03:46;22.80;45.70
15983;DHT22;14442;50.196;8.096;2022-11-27T06:06:15;22.80;45.70
15983;DHT22;14442;50.196;8.096;2022-11-27T06:08:43;22.80;45.80
15983;DHT22;14442;50.196;8.096;2022-11-27T06:11:11;22.80;45.80
15983;DHT22;14442;50.196;8.096;2022-11-27T06:13:39;22.90;45.80
15983;DHT22;14442;50.196;8.096;2022-11-27T06:16:07;22.80;45.80
15983;DHT22;14442;50.196;8.096;2022-11-27T06:18:35;22.80;45.80
15983;DHT22;14442;50.196;8.096;2022-11-27T06:21:05;22.80;45.80
15983;DHT22;14442;50.196;8.096;2022-11-27T06:23:32;22.70;45.70
15983;DHT22;14442;50.196;8.096;2022-11-27T06:26:09;22.70;45.70
15983;DHT22;14442;50.196;8.096;2022-11-27T06:28:36;22.70;45.70
15983;DHT22;14442;50.196;8.096;2022-11-27T06:31:05;22.70;45.70
15983;DHT22;14442;50.196;8.096;2022-11-27T06:33:32;22.70;45.70
15983;DHT22;14442;50.196;8.096;2022-11-27T06:36:00;22.70;45.80
15983;DHT22;14442;50.196;8.096;2022-11-27T06:38:27;22.70;45.70
15983;DHT22;14442;50.196;8.096;2022-11-27T06:40:54;22.70;45.80
15983;DHT22;14442;50.196;8.096;2022-11-27T06:43:21;22.70;45.80
15983;DHT22;14442;50.196;8.096;2022-11-27T06:45:54;22.70;45.80
15983;DHT22;14442;50.196;8.096;2022-11-27T06:48:21;22.70;45.80
15983;DHT22;14442;50.196;8.096;2022-11-27T06:50:48;22.70;45.90
15983;DHT22;14442;50.196;8.096;2022-11-27T06:53:16;22.60;45.80
15983;DHT22;14442;50.196;8.096;2022-11-27T06:55:43;22.60;45.80
15983;DHT22;14442;50.196;8.096;2022-11-27T06:58:09;22.60;45.80
15983;DHT22;14442;50.196;8.096;2022-11-27T07:00:36;22.60;45.90
15983;DHT22;14442;50.196;8.096;2022-11-27T07:03:03;22.60;45.90
15983;DHT22;14442;50.196;8.096;2022-11-27T07:05:30;22.60;45.80
15983;DHT22;14442;50.196;8.096;2022-11-27T07:07:57;22.60;45.80
15983;DHT22;14442;50.196;8.096;2022-11-27T07:10:26;22.60;45.80
15983;DHT22;14442;50.196;8.096;2022-11-27T07:12:52;22.60;45.80
15983;DHT22;14442;50.196;8.096;2022-11-27T07:15:19;22.60;45.80
15983;DHT22;14442;50.196;8.096;2022-11-27T07:17:46;22.60;45.80
15983;DHT22;14442;50.196;8.096;2022-11-27T07:20:13;22.60;45.80
15983;DHT22;14442;50.196;8.096;2022-11-27T07:22:40;22.60;46.00
15983;DHT22;14442;50.196;8.096;2022-11-27T07:25:07;22.60;45.80
15983;DHT22;14442;50.196;8.096;2022-11-27T07:27:35;22.60;45.80
15983;DHT22;14442;50.196;8.096;2022-11-27T07:30:02;22.60;45.70
15983;DHT22;14442;50.196;8.096;2022-11-27T07:32:30;22.60;45.70
15983;DHT22;14442;50.196;8.096;2022-11-27T07:34:56;22.60;45.80
15983;DHT22;14442;50.196;8.096;2022-11-27T07:37:23;22.60;46.00
15983;DHT22;14442;50.196;8.096;2022-11-27T07:39:50;22.50;46.00
15983;DHT22;14442;50.196;8.096;2022-11-27T07:42:17;22.50;46.30
15983;DHT22;14442;50.196;8.096;2022-11-27T07:44:45;22.60;46.60
15983;DHT22;14442;50.196;8.096;2022-11-27T07:47:12;22.60;46.80
15983;DHT22;14442;50.196;8.096;2022-11-27T07:49:38;22.60;46.80
15983;DHT22;14442;50.196;8.096;2022-11-27T07:52:05;22.50;46.80
15983;DHT22;14442;50.196;8.096;2022-11-27T07:54:32;22.60;47.00
15983;DHT22;14442;50.196;8.096;2022-11-27T07:57:00;22.50;47.20
15983;DHT22;14442;50.196;8.096;2022-11-27T07:59:27;22.60;47.30
15983;DHT22;14442;50.196;8.096;2022-11-27T08:01:55;22.60;47.30
15983;DHT22;14442;50.196;8.096;2022-11-27T08:04:22;22.60;47.30
15983;DHT22;14442;50.196;8.096;2022-11-27T08:06:48;22.60;47.30
15983;DHT22;14442;50.196;8.096;2022-11-27T08:09:15;22.70;47.30
15983;DHT22;14442;50.196;8.096;2022-11-27T08:11:42;22.70;47.30
15983;DHT22;14442;50.196;8.096;2022-11-27T08:14:09;22.70;47.30
15983;DHT22;14442;50.196;8.096;2022-11-27T08:16:38;22.80;47.40
15983;DHT22;14442;50.196;8.096;2022-11-27T08:19:06;22.80;47.30
15983;DHT22;14442;50.196;8.096;2022-11-27T08:21:32;22.80;47.30
15983;DHT22;14442;50.196;8.096;2022-11-27T08:23:59;22.80;47.30
15983;DHT22;14442;50.196;8.096;2022-11-27T08:26:26;22.80;47.30
15983;DHT22;14442;50.196;8.096;2022-11-27T08:28:53;22.80;47.10
15983;DHT22;14442;50.196;8.096;2022-11-27T08:31:20;22.80;47.30
15983;DHT22;14442;50.196;8.096;2022-11-27T08:33:47;22.80;47.20
15983;DHT22;14442;50.196;8.096;2022-11-27T08:36:16;22.80;47.30
15983;DHT22;14442;50.196;8.096;2022-11-27T08:38:42;22.80;47.40
15983;DHT22;14442;50.196;8.096;2022-11-27T08:41:09;22.80;47.40
15983;DHT22;14442;50.196;8.096;2022-11-27T08:43:36;22.80;47.50
15983;DHT22;14442;50.196;8.096;2022-11-27T08:46:03;22.90;47.60
15983;DHT22;14442;50.196;8.096;2022-11-27T08:48:30;22.90;47.40
15983;DHT22;14442;50.196;8.096;2022-11-27T08:50:57;22.80;47.30
15983;DHT22;14442;50.196;8.096;2022-11-27T08:53:25;22.80;47.40
15983;DHT22;14442;50.196;8.096;2022-11-27T08:55:52;22.70;47.30
15983;DHT22;14442;50.196;8.096;2022-11-27T08:58:18;22.70;47.50
15983;DHT22;14442;50.196;8.096;2022-11-27T09:00:45;22.70;47.50
15983;DHT22;14442;50.196;8.096;2022-11-27T09:03:12;22.70;47.70
15983;DHT22;14442;50.196;8.096;2022-11-27T09:05:41;22.70;47.70
15983;DHT22;14442;50.196;8.096;2022-11-27T09:08:08;22.70;47.90
15983;DHT22;14442;50.196;8.096;2022-11-27T09:10:38;22.70;47.90
15983;DHT22;14442;50.196;8.096;2022-11-27T09:13:05;22.70;48.00
15983;DHT22;14442;50.196;8.096;2022-11-27T09:15:31;22.70;48.10
15983;DHT22;14442;50.196;8.096;2022-11-27T09:17:58;22.70;48.20
15983;DHT22;14442;50.196;8.096;2022-11-27T09:20:25;22.70;48.10
15983;DHT22;14442;50.196;8.096;2022-11-27T09:22:51;22.70;47.90
15983;DHT22;14442;50.196;8.096;2022-11-27T09:25:18;22.80;48.20
15983;DHT22;14442;50.196;8.096;2022-11-27T09:27:46;22.80;48.10
15983;DHT22;14442;50.196;8.096;2022-11-27T09:30:13;22.80;48.10
15983;DHT22;14442;50.196;8.096;2022-11-27T09:32:40;22.80;48.10
15983;DHT22;14442;50.196;8.096;2022-11-27T09:35:07;22.80;49.20
15983;DHT22;14442;50.196;8.096;2022-11-27T09:37:34;22.80;48.60
15983;DHT22;14442;50.196;8.096;2022-11-27T09:40:00;22.80;48.80
15983;DHT22;14442;50.196;8.096;2022-11-27T09:42:36;22.80;48.60
15983;DHT22;14442;50.196;8.096;2022-11-27T09:45:12;22.90;48.80
15983;DHT22;14442;50.196;8.096;2022-11-27T09:47:41;22.90;48.60
15983;DHT22;14442;50.196;8.096;2022-11-27T09:50:13;22.90;48.80
15983;DHT22;14442;50.196;8.096;2022-11-27T09:52:41;22.90;48.80
15983;DHT22;14442;50.196;8.096;2022-11-27T09:55:14;22.90;48.90
15983;DHT22;14442;50.196;8.096;2022-11-27T09:57:45;22.90;49.10
15983;DHT22;14442;50.196;8.096;2022-11-27T10:00:18;22.90;49.10
15983;DHT22;14442;50.196;8.096;2022-11-27T10:02:45;22.90;49.10
15983;DHT22;14442;50.196;8.096;2022-11-27T10:05:17;22.90;49.10
15983;DHT22;14442;50.196;8.096;2022-11-27T10:08:17;22.90;49.30
15983;DHT22;14442;50.196;8.096;2022-11-27T10:10:55;22.90;49.50
15983;DHT22;14442;50.196;8.096;2022-11-27T10:13:44;22.90;49.20
15983;DHT22;14442;50.196;8.096;2022-11-27T10:16:23;22.70;49.00
15983;DHT22;14442;50.196;8.096;2022-11-27T10:18:54;22.70;49.20
15983;DHT22;14442;50.196;8.096;2022-11-27T10:21:26;22.70;49.20
15983;DHT22;14442;50.196;8.096;2022-11-27T10:24:00;22.70;49.20
15983;DHT22;14442;50.196;8.096;2022-11-27T10:26:31;22.70;49.20
15983;DHT22;14442;50.196;8.096;2022-11-27T10:29:04;22.70;49.00
15983;DHT22;14442;50.196;8.096;2022-11-27T10:31:38;22.70;48.90
15983;DHT22;14442;50.196;8.096;2022-11-27T10:34:19;22.70;48.80
15983;DHT22;14442;50.196;8.096;2022-11-27T10:36:52;22.70;48.80
15983;DHT22;14442;50.196;8.096;2022-11-27T10:39:25;22.70;48.70
15983;DHT22;14442;50.196;8.096;2022-11-27T10:41:58;22.70;48.70
15983;DHT22;14442;50.196;8.096;2022-11-27T10:44:31;22.70;48.70
15983;DHT22;14442;50.196;8.096;2022-11-27T10:47:02;22.60;48.50
15983;DHT22;14442;50.196;8.096;2022-11-27T10:49:29;22.60;48.40
15983;DHT22;14442;50.196;8.096;2022-11-27T10:51:56;22.60;48.50
15983;DHT22;14442;50.196;8.096;2022-11-27T10:54:26;22.60;48.50
15983;DHT22;14442;50.196;8.096;2022-11-27T10:57:27;22.60;48.40
15983;DHT22;14442;50.196;8.096;2022-11-27T11:00:03;22.60;48.40
15983;DHT22;14442;50.196;8.096;2022-11-27T11:02:35;22.60;48.40
15983;DHT22;14442;50.196;8.096;2022-11-27T11:05:11;22.60;48.40
15983;DHT22;14442;50.196;8.096;2022-11-27T11:07:38;22.60;48.40
15983;DHT22;14442;50.196;8.096;2022-11-27T11:10:16;22.60;48.30
15983;DHT22;14442;50.196;8.096;2022-11-27T11:12:47;22.60;48.30
15983;DHT22;14442;50.196;8.096;2022-11-27T11:15:15;22.70;48.30
15983;DHT22;14442;50.196;8.096;2022-11-27T11:17:43;22.60;48.20
15983;DHT22;14442;50.196;8.096;2022-11-27T11:20:20;22.70;48.30
15983;DHT22;14442;50.196;8.096;2022-11-27T11:22:47;22.60;48.20
15983;DHT22;14442;50.196;8.096;2022-11-27T11:25:16;22.70;48.20
15983;DHT22;14442;50.196;8.096;2022-11-27T11:27:44;22.70;48.30
15983;DHT22;14442;50.196;8.096;2022-11-27T11:30:20;22.70;48.20
15983;DHT22;14442;50.196;8.096;2022-11-27T11:32:49;22.70;48.20
15983;DHT22;14442;50.196;8.096;2022-11-27T11:35:26;22.70;48.20
15983;DHT22;14442;50.196;8.096;2022-11-27T11:37:53;22.70;48.20
15983;DHT22;14442;50.196;8.096;2022-11-27T11:40:22;22.80;48.40
15983;DHT22;14442;50.196;8.096;2022-11-27T11:42:52;22.80;48.40
15983;DHT22;14442;50.196;8.096;2022-11-27T11:45:20;22.80;48.40
15983;DHT22;14442;50.196;8.096;2022-11-27T11:47:50;22.80;48.40
15983;DHT22;14442;50.196;8.096;2022-11-27T11:50:28;22.80;48.40
15983;DHT22;14442;50.196;8.096;2022-11-27T11:53:00;22.80;48.40
15983;DHT22;14442;50.196;8.096;2022-11-27T11:55:33;22.90;48.50
15983;DHT22;14442;50.196;8.096;2022-11-27T11:58:34;22.90;48.40
15983;DHT22;14442;50.196;8.096;2022-11-27T12:01:14;22.90;49.10
15983;DHT22;14442;50.196;8.096;2022-11-27T12:03:57;22.90;48.50
15983;DHT22;14442;50.196;8.096;2022-11-27T12:06:34;22.90;48.40
15983;DHT22;14442;50.196;8.096;2022-11-27T12:09:09;22.90;48.50
15983;DHT22;14442;50.196;8.096;2022-11-27T12:11:43;22.90;48.50
15983;DHT22;14442;50.196;8.096;2022-11-27T12:14:19;22.90;48.40
15983;DHT22;14442;50.196;8.096;2022-11-27T12:16:56;22.90;48.40
15983;DHT22;14442;50.196;8.096;2022-11-27T12:19:45;23.00;48.50
15983;DHT22;14442;50.196;8.096;2022-11-27T12:22:21;23.00;48.50
15983;DHT22;14442;50.196;8.096;2022-11-27T12:24:57;23.00;48.60
15983;DHT22;14442;50.196;8.096;2022-11-27T12:27:36;22.90;48.40
15983;DHT22;14442;50.196;8.096;2022-11-27T12:30:12;23.00;48.60
15983;DHT22;14442;50.196;8.096;2022-11-27T12:33:12;22.90;48.50
15983;DHT22;14442;50.196;8.096;2022-11-27T12:35:46;23.00;48.50
15983;DHT22;14442;50.196;8.096;2022-11-27T12:41:32;23.00;48.50
15983;DHT22;14442;50.196;8.096;2022-11-27T12:44:01;23.00;48.50
15983;DHT22;14442;50.196;8.096;2022-11-27T12:46:32;23.00;48.50
15983;DHT22;14442;50.196;8.096;2022-11-27T12:49:09;23.00;48.50
15983;DHT22;14442;50.196;8.096;2022-11-27T12:51:43;23.00;48.40
15983;DHT22;14442;50.196;8.096;2022-11-27T12:54:13;23.00;48.40
15983;DHT22;14442;50.196;8.096;2022-11-27T12:56:43;23.00;48.40
15983;DHT22;14442;50.196;8.096;2022-11-27T12:59:17;23.00;48.40
15983;DHT22;14442;50.196;8.096;2022-11-27T13:01:49;23.00;48.40
15983;DHT22;14442;50.196;8.096;2022-11-27T13:04:23;23.00;48.40
15983;DHT22;14442;50.196;8.096;2022-11-27T13:06:56;23.00;48.40
15983;DHT22;14442;50.196;8.096;2022-11-27T13:09:30;23.00;48.30
15983;DHT22;14442;50.196;8.096;2022-11-27T13:12:00;23.00;48.30
15983;DHT22;14442;50.196;8.096;2022-11-27T13:14:29;22.90;48.20
15983;DHT22;14442;50.196;8.096;2022-11-27T13:17:03;23.00;48.30
15983;DHT22;14442;50.196;8.096;2022-11-27T13:19:32;23.00;48.10
15983;DHT22;14442;50.196;8.096;2022-11-27T13:22:05;23.00;48.20
15983;DHT22;14442;50.196;8.096;2022-11-27T13:24:32;23.00;48.20
15983;DHT22;14442;50.196;8.096;2022-11-27T13:27:03;23.00;48.30
15983;DHT22;14442;50.196;8.096;2022-11-27T13:29:32;23.00;48.30
15983;DHT22;14442;50.196;8.096;2022-11-27T13:32:03;23.00;49.10
15983;DHT22;14442;50.196;8.096;2022-11-27T13:34:32;23.00;48.50
15983;DHT22;14442;50.196;8.096;2022-11-27T13:37:05;23.00;48.60
15983;DHT22;14442;50.196;8.096;2022-11-27T13:39:34;23.00;48.70
15983;DHT22;14442;50.196;8.096;2022-11-27T13:42:04;23.00;48.80
15983;DHT22;14442;50.196;8.096;2022-11-27T13:44:34;23.00;48.90
15983;DHT22;14442;50.196;8.096;2022-11-27T13:47:07;23.00;48.90
15983;DHT22;14442;50.196;8.096;2022-11-27T13:49:35;23.00;48.80
15983;DHT22;14442;50.196;8.096;2022-11-27T13:52:07;23.00;48.80
15983;DHT22;14442;50.196;8.096;2022-11-27T13:54:35;23.00;48.80
15983;DHT22;14442;50.196;8.096;2022-11-27T13:57:12;23.00;48.80
15983;DHT22;14442;50.196;8.096;2022-11-27T13:59:40;23.00;48.90
15983;DHT22;14442;50.196;8.096;2022-11-27T14:02:08;23.00;48.90
15983;DHT22;14442;50.196;8.096;2022-11-27T14:04:35;22.90;48.90
15983;DHT22;14442;50.196;8.096;2022-11-27T14:07:15;22.90;48.90
15983;DHT22;14442;50.196;8.096;2022-11-27T14:09:46;22.90;48.80
15983;DHT22;14442;50.196;8.096;2022-11-27T14:12:18;22.90;48.80
15983;DHT22;14442;50.196;8.096;2022-11-27T14:14:59;22.90;48.90
15983;DHT22;14442;50.196;8.096;2022-11-27T14:17:33;22.90;48.80
15983;DHT22;14442;50.196;8.096;2022-11-27T14:20:04;22.90;48.90
15983;DHT22;14442;50.196;8.096;2022-11-27T14:22:40;22.80;48.70
15983;DHT22;14442;50.196;8.096;2022-11-27T14:25:18;22.80;48.60
15983;DHT22;14442;50.196;8.096;2022-11-27T14:27:47;22.80;48.70
15983;DHT22;14442;50.196;8.096;2022-11-27T14:30:23;22.80;48.70
15983;DHT22;14442;50.196;8.096;2022-11-27T14:32:50;22.80;48.70
15983;DHT22;14442;50.196;8.096;2022-11-27T14:35:20;22.80;48.70
15983;DHT22;14442;50.196;8.096;2022-11-27T14:37:49;22.80;48.60
15983;DHT22;14442;50.196;8.096;2022-11-27T14:40:21;22.80;48.60
15983;DHT22;14442;50.196;8.096;2022-11-27T14:42:48;22.80;48.60
15983;DHT22;14442;50.196;8.096;2022-11-27T14:45:16;22.70;48.50
15983;DHT22;14442;50.196;8.096;2022-11-27T14:47:47;22.70;48.50
15983;DHT22;14442;50.196;8.096;2022-11-27T14:50:14;22.70;48.50
15983;DHT22;14442;50.196;8.096;2022-11-27T14:52:42;22.70;48.50
15983;DHT22;14442;50.196;8.096;2022-11-27T14:55:14;22.70;48.40
15983;DHT22;14442;50.196;8.096;2022-11-27T14:57:42;22.70;48.50
15983;DHT22;14442;50.196;8.096;2022-11-27T15:00:18;22.70;48.50
15983;DHT22;14442;50.196;8.096;2022-11-27T15:02:46;22.60;48.30
15983;DHT22;14442;50.196;8.096;2022-11-27T15:05:19;22.70;48.30
15983;DHT22;14442;50.196;8.096;2022-11-27T15:07:46;22.60;48.30
15983;DHT22;14442;50.196;8.096;2022-11-27T15:10:24;22.60;48.30
15983;DHT22;14442;50.196;8.096;2022-11-27T15:12:53;22.60;48.30
15983;DHT22;14442;50.196;8.096;2022-11-27T15:15:22;22.60;48.30
15983;DHT22;14442;50.196;8.096;2022-11-27T15:17:53;22.60;48.30
15983;DHT22;14442;50.196;8.096;2022-11-27T15:20:23;22.60;48.30
15983;DHT22;14442;50.196;8.096;2022-11-27T15:22:52;22.60;48.30
15983;DHT22;14442;50.196;8.096;2022-11-27T15:25:38;22.60;48.30
15983;DHT22;14442;50.196;8.096;2022-11-27T15:28:27;22.50;48.20
15983;DHT22;14442;50.196;8.096;2022-11-27T15:30:55;22.50;48.10
15983;DHT22;14442;50.196;8.096;2022-11-27T15:33:26;22.50;48.70
15983;DHT22;14442;50.196;8.096;2022-11-27T15:35:54;22.50;48.10
15983;DHT22;14442;50.196;8.096;2022-11-27T15:38:21;22.50;48.10
15983;DHT22;14442;50.196;8.096;2022-11-27T15:40:57;22.50;48.10
15983;DHT22;14442;50.196;8.096;2022-11-27T15:43:26;22.50;48.10
15983;DHT22;14442;50.196;8.096;2022-11-27T15:45:52;22.40;48.00
15983;DHT22;14442;50.196;8.096;2022-11-27T15:48:20;22.40;48.00
15983;DHT22;14442;50.196;8.096;2022-11-27T15:50:48;22.50;48.10